Time;durP1;ratioP1;P1;durP2;ratioP2;P2;SDS_P1;SDS_P2;PMS_P1;PMS_P2;Temp;Humidity;BMP_temperature;BMP_pressure;BME280_temperature;BME280_humidity;BME280_pressure;Samples;Min_cycle;Max_cycle;Signal;HPM_P1;HPM_P2
2024/02/15 00:01:10;;;;;;;9.70;2.70;;;;;;;;;;5049060;28;20232;-91
2024/02/15 00:03:36;;;;;;;6.90;2.90;;;;;;;;;;5049230;28;20499;-91
2024/02/15 00:06:02;;;;;;;9.00;2.88;;;;;;;;;;5054675;28;20181;-91
2024/02/15 00:08:29;;;;;;;6.40;3.30;;;;;;;;;;5050694;28;20728;-92
2024/02/15 00:10:55;;;;;;;3.70;3.20;;;;;;;;;;5051083;28;20204;-88
2024/02/15 00:13:22;;;;;;;5.77;3.00;;;;;;;;;;5055309;28;20223;-91
2024/02/15 00:15:50;;;;;;;8.07;3.20;;;;;;;;;;5051647;28;20424;-90
2024/02/15 00:18:16;;;;;;;10.43;3.35;;;;;;;;;;5057595;28;20484;-91
2024/02/15 00:20:43;;;;;;;6.90;3.58;;;;;;;;;;5067506;28;20208;-90
2024/02/15 00:23:09;;;;;;;4.70;2.57;;;;;;;;;;5048107;28;20176;-91
2024/02/15 00:25:35;;;;;;;4.30;2.80;;;;;;;;;;5054464;28;20981;-89
2024/02/15 00:28:01;;;;;;;8.60;3.00;;;;;;;;;;5050784;28;20438;-91
2024/02/15 00:30:28;;;;;;;8.88;3.42;;;;;;;;;;5048627;28;20198;-90
2024/02/15 00:32:54;;;;;;;5.93;3.03;;;;;;;;;;5073908;28;20543;-91
2024/02/15 00:35:20;;;;;;;5.70;2.97;;;;;;;;;;5053295;28;20183;-90
2024/02/15 00:37:47;;;;;;;5.20;2.80;;;;;;;;;;5051863;28;20261;-91
2024/02/15 00:40:13;;;;;;;7.88;4.53;;;;;;;;;;5047398;28;20470;-91
2024/02/15 00:42:39;;;;;;;7.53;3.20;;;;;;;;;;5056213;28;20188;-91
2024/02/15 00:45:05;;;;;;;4.63;3.00;;;;;;;;;;5046689;28;20257;-90
2024/02/15 00:47:31;;;;;;;3.28;2.92;;;;;;;;;;5050100;28;20436;-91
2024/02/15 00:49:58;;;;;;;8.38;3.67;;;;;;;;;;5050295;28;20548;-91
2024/02/15 00:52:25;;;;;;;8.50;3.72;;;;;;;;;;5051373;28;20180;-91
2024/02/15 00:54:51;;;;;;;10.35;3.50;;;;;;;;;;5057125;28;20687;-90
2024/02/15 00:57:17;;;;;;;8.13;3.40;;;;;;;;;;5066799;28;20181;-91
2024/02/15 00:59:43;;;;;;;5.45;3.03;;;;;;;;;;5057265;28;20869;-91
2024/02/15 01:02:09;;;;;;;8.25;3.33;;;;;;;;;;5049469;28;20181;-90
2024/02/15 01:04:35;;;;;;;5.50;3.07;;;;;;;;;;5055471;28;20191;-90
2024/02/15 01:07:01;;;;;;;3.50;2.97;;;;;;;;;;5068701;28;20507;-90
2024/02/15 01:09:27;;;;;;;8.27;3.88;;;;;;;;;;5031291;28;20467;-90
2024/02/15 01:11:54;;;;;;;9.30;2.90;;;;;;;;;;5044773;28;20188;-89
2024/02/15 01:14:20;;;;;;;8.27;3.15;;;;;;;;;;5054811;28;20431;-90
2024/02/15 01:16:46;;;;;;;8.43;2.73;;;;;;;;;;5048857;28;20181;-90
2024/02/15 01:19:12;;;;;;;11.32;4.10;;;;;;;;;;5046716;28;20490;-91
2024/02/15 01:21:38;;;;;;;7.17;2.90;;;;;;;;;;5048065;28;20205;-91
2024/02/15 01:24:06;;;;;;;5.43;3.10;;;;;;;;;;5046971;28;20451;-91
2024/02/15 01:26:32;;;;;;;9.63;3.03;;;;;;;;;;5049949;28;20185;-92
2024/02/15 01:28:58;;;;;;;10.37;3.20;;;;;;;;;;5047152;28;20489;-91
2024/02/15 01:31:24;;;;;;;8.30;3.08;;;;;;;;;;5046651;28;20443;-91
2024/02/15 01:33:50;;;;;;;10.07;2.80;;;;;;;;;;5051616;28;20180;-91
2024/02/15 01:36:17;;;;;;;3.72;2.55;;;;;;;;;;5056162;28;20425;-91
2024/02/15 01:38:43;;;;;;;6.13;2.80;;;;;;;;;;5061054;28;20174;-92
2024/02/15 01:41:09;;;;;;;3.22;2.40;;;;;;;;;;5071899;28;20201;-92
2024/02/15 01:43:36;;;;;;;6.15;2.85;;;;;;;;;;5047503;28;20246;-90
2024/02/15 01:46:06;;;;;;;5.85;2.60;;;;;;;;;;5050881;28;20183;-91
2024/02/15 01:48:32;;;;;;;2.70;2.27;;;;;;;;;;5067606;28;20179;-91
2024/02/15 01:50:58;;;;;;;5.40;2.60;;;;;;;;;;5061070;28;20448;-91
2024/02/15 01:53:24;;;;;;;4.30;2.95;;;;;;;;;;5033357;28;20506;-91
2024/02/15 01:55:52;;;;;;;9.93;3.47;;;;;;;;;;5050701;28;20284;-90
2024/02/15 01:58:18;;;;;;;3.23;2.33;;;;;;;;;;5054523;28;20192;-91
2024/02/15 02:00:44;;;;;;;3.10;2.25;;;;;;;;;;5048444;28;20540;-90
2024/02/15 02:03:11;;;;;;;4.55;3.15;;;;;;;;;;5046708;28;20600;-91
2024/02/15 02:05:37;;;;;;;4.03;2.45;;;;;;;;;;5067569;28;20628;-91
2024/02/15 02:08:09;;;;;;;8.38;2.97;;;;;;;;;;5047026;28;20193;-90
2024/02/15 02:10:35;;;;;;;3.13;2.45;;;;;;;;;;5067508;28;20541;-91
2024/02/15 02:13:03;;;;;;;5.50;2.47;;;;;;;;;;5070226;28;20180;-91
2024/02/15 02:15:31;;;;;;;4.28;2.47;;;;;;;;;;5051425;28;20431;-91
2024/02/15 02:17:58;;;;;;;4.13;2.20;;;;;;;;;;5061104;28;20169;-91
2024/02/15 02:20:24;;;;;;;2.00;1.80;;;;;;;;;;5053646;28;20255;-91
2024/02/15 02:22:51;;;;;;;3.00;1.80;;;;;;;;;;5066583;28;20229;-90
2024/02/15 02:25:18;;;;;;;3.15;1.50;;;;;;;;;;5066783;28;20407;-90
2024/02/15 02:27:44;;;;;;;4.57;2.08;;;;;;;;;;5064487;28;20169;-89
2024/02/15 02:30:17;;;;;;;2.70;2.10;;;;;;;;;;5066817;28;20275;-90
2024/02/15 02:32:43;;;;;;;2.70;2.00;;;;;;;;;;5049147;28;20185;-90
2024/02/15 02:35:12;;;;;;;3.88;2.03;;;;;;;;;;5051794;28;20185;-90
2024/02/15 02:37:38;;;;;;;2.30;1.80;;;;;;;;;;5042658;28;20260;-90
2024/02/15 02:40:12;;;;;;;3.85;1.92;;;;;;;;;;5039318;28;20208;-90
2024/02/15 02:43:01;;;;;;;2.47;2.20;;;;;;;;;;5044652;28;20223;-90
2024/02/15 02:45:27;;;;;;;2.67;1.98;;;;;;;;;;5075756;28;20623;-90
2024/02/15 02:47:53;;;;;;;2.42;1.83;;;;;;;;;;5054804;28;20185;-90
2024/02/15 02:50:19;;;;;;;3.90;2.25;;;;;;;;;;5056109;28;20191;-89
2024/02/15 02:52:48;;;;;;;2.55;2.20;;;;;;;;;;5056152;28;20186;-89
2024/02/15 02:55:14;;;;;;;4.07;2.08;;;;;;;;;;5057433;28;20177;-89
2024/02/15 02:57:40;;;;;;;7.97;2.33;;;;;;;;;;5067301;28;20180;-90
2024/02/15 03:00:12;;;;;;;2.85;2.28;;;;;;;;;;5052246;28;20218;-89
2024/02/15 03:02:42;;;;;;;3.13;2.03;;;;;;;;;;5049753;28;20181;-89
2024/02/15 03:05:08;;;;;;;2.83;2.20;;;;;;;;;;5051870;28;20180;-89
2024/02/15 03:07:34;;;;;;;2.90;2.33;;;;;;;;;;5048310;28;20217;-89
2024/02/15 03:10:04;;;;;;;4.25;2.45;;;;;;;;;;5040478;28;20185;-89
2024/02/15 03:12:30;;;;;;;5.97;2.55;;;;;;;;;;5054002;28;20185;-88
2024/02/15 03:14:56;;;;;;;4.35;2.50;;;;;;;;;;5055278;28;20231;-89
2024/02/15 03:17:25;;;;;;;2.22;2.00;;;;;;;;;;5035063;28;20565;-88
2024/02/15 03:19:51;;;;;;;3.55;2.58;;;;;;;;;;5059237;28;20228;-89
2024/02/15 03:22:17;;;;;;;3.97;2.15;;;;;;;;;;5069263;28;20180;-89
2024/02/15 03:24:43;;;;;;;3.38;2.10;;;;;;;;;;5051792;28;20181;-89
2024/02/15 03:27:12;;;;;;;2.77;2.13;;;;;;;;;;5047882;28;20177;-89
2024/02/15 03:29:39;;;;;;;3.95;2.17;;;;;;;;;;5067292;28;20444;-88
2024/02/15 03:32:06;;;;;;;3.05;2.08;;;;;;;;;;5035960;28;20272;-88
2024/02/15 03:34:32;;;;;;;3.40;2.50;;;;;;;;;;5063059;28;20691;-88
2024/02/15 03:36:58;;;;;;;3.10;1.90;;;;;;;;;;5052100;28;20683;-88
2024/02/15 03:39:24;;;;;;;3.22;2.10;;;;;;;;;;5072084;28;20173;-88
2024/02/15 03:41:51;;;;;;;4.30;2.80;;;;;;;;;;5058341;28;20189;-87
2024/02/15 03:44:19;;;;;;;3.28;1.90;;;;;;;;;;5046406;28;20625;-89
2024/02/15 03:46:50;;;;;;;4.43;2.10;;;;;;;;;;5069584;28;20253;-88
2024/02/15 03:49:17;;;;;;;4.65;2.88;;;;;;;;;;5068043;28;20166;-88
2024/02/15 03:51:44;;;;;;;3.53;2.30;;;;;;;;;;5052280;28;20173;-88
2024/02/15 03:54:10;;;;;;;4.63;2.00;;;;;;;;;;5046915;28;20218;-89
2024/02/15 03:56:37;;;;;;;4.50;1.80;;;;;;;;;;5043393;28;20263;-88
2024/02/15 03:59:04;;;;;;;2.15;1.85;;;;;;;;;;5035345;28;20838;-89
2024/02/15 04:01:33;;;;;;;3.15;1.85;;;;;;;;;;5062555;28;20212;-88
2024/02/15 04:04:00;;;;;;;4.97;2.00;;;;;;;;;;5054198;28;20185;-88
2024/02/15 04:06:28;;;;;;;2.55;2.35;;;;;;;;;;5063731;28;20597;-88
2024/02/15 04:08:54;;;;;;;2.40;1.80;;;;;;;;;;5047777;28;20181;-88
2024/02/15 04:11:20;;;;;;;3.58;2.15;;;;;;;;;;5066023;28;20669;-88
2024/02/15 04:13:46;;;;;;;10.40;2.20;;;;;;;;;;5029667;28;20191;-88
2024/02/15 04:16:13;;;;;;;2.30;2.00;;;;;;;;;;5036963;28;20432;-88
2024/02/15 04:18:39;;;;;;;4.88;2.13;;;;;;;;;;5065023;28;20474;-88
2024/02/15 04:21:07;;;;;;;7.07;2.10;;;;;;;;;;5052099;28;20204;-88
2024/02/15 04:23:33;;;;;;;3.92;2.05;;;;;;;;;;5053535;28;20489;-88
2024/02/15 04:25:59;;;;;;;4.43;2.22;;;;;;;;;;5069275;28;20264;-87
2024/02/15 04:28:27;;;;;;;2.27;1.70;;;;;;;;;;5052311;28;20199;-88
2024/02/15 04:30:53;;;;;;;3.70;2.20;;;;;;;;;;5051634;28;20521;-88
2024/02/15 04:33:20;;;;;;;3.05;1.85;;;;;;;;;;5066157;28;20205;-88
2024/02/15 04:35:46;;;;;;;4.40;2.13;;;;;;;;;;5034801;28;20203;-88
2024/02/15 04:38:12;;;;;;;3.35;1.92;;;;;;;;;;5067218;28;20421;-87
2024/02/15 04:40:39;;;;;;;2.97;2.67;;;;;;;;;;5053502;28;20212;-88
2024/02/15 04:43:06;;;;;;;6.13;3.60;;;;;;;;;;5053254;28;20185;-87
2024/02/15 04:45:32;;;;;;;3.63;2.05;;;;;;;;;;5032061;28;20181;-88
2024/02/15 04:48:01;;;;;;;5.80;2.20;;;;;;;;;;5046538;28;20185;-86
2024/02/15 04:50:27;;;;;;;5.68;2.30;;;;;;;;;;5057159;28;20927;-88
2024/02/15 04:52:53;;;;;;;3.78;2.30;;;;;;;;;;5050820;28;20256;-87
2024/02/15 04:55:19;;;;;;;3.40;1.83;;;;;;;;;;5039973;28;20280;-88
2024/02/15 04:57:48;;;;;;;2.78;2.17;;;;;;;;;;5061983;28;20424;-87
2024/02/15 05:00:15;;;;;;;4.63;2.33;;;;;;;;;;5065276;28;20292;-88
2024/02/15 05:02:41;;;;;;;3.90;2.40;;;;;;;;;;5043741;28;20193;-87
2024/02/15 05:05:08;;;;;;;2.72;2.10;;;;;;;;;;5063645;28;20175;-88
2024/02/15 05:07:37;;;;;;;4.72;2.05;;;;;;;;;;5026815;28;20195;-88
2024/02/15 05:10:06;;;;;;;4.75;2.10;;;;;;;;;;5061196;28;20186;-87
2024/02/15 05:12:33;;;;;;;6.10;2.03;;;;;;;;;;5065444;28;20168;-87
2024/02/15 05:14:59;;;;;;;6.35;2.20;;;;;;;;;;5063093;28;20170;-87
2024/02/15 05:17:25;;;;;;;5.60;2.25;;;;;;;;;;5043095;28;20239;-87
2024/02/15 05:19:51;;;;;;;5.03;3.23;;;;;;;;;;5045945;28;20638;-87
2024/02/15 05:22:18;;;;;;;3.60;1.90;;;;;;;;;;5066098;28;20439;-87
2024/02/15 05:24:45;;;;;;;2.15;1.80;;;;;;;;;;5046452;28;20876;-87
2024/02/15 05:27:11;;;;;;;4.70;2.55;;;;;;;;;;5035666;28;20185;-86
2024/02/15 05:29:39;;;;;;;7.67;2.30;;;;;;;;;;5052002;28;20600;-86
2024/02/15 05:32:05;;;;;;;6.78;2.35;;;;;;;;;;5062884;28;20435;-87
2024/02/15 05:34:31;;;;;;;3.55;2.10;;;;;;;;;;5051691;28;20185;-88
2024/02/15 05:36:57;;;;;;;4.93;2.33;;;;;;;;;;5054369;28;20199;-88
2024/02/15 05:39:23;;;;;;;4.40;2.37;;;;;;;;;;5032315;28;20428;-87
2024/02/15 05:41:49;;;;;;;4.53;2.40;;;;;;;;;;5062190;28;20439;-86
2024/02/15 05:44:20;;;;;;;7.60;2.37;;;;;;;;;;5069304;28;20800;-88
2024/02/15 05:46:47;;;;;;;4.38;2.83;;;;;;;;;;5032205;28;20428;-87
2024/02/15 05:49:17;;;;;;;9.60;2.85;;;;;;;;;;5043944;28;20185;-85
2024/02/15 05:51:43;;;;;;;4.75;2.83;;;;;;;;;;5046856;28;20192;-85
2024/02/15 05:54:09;;;;;;;8.38;2.80;;;;;;;;;;5060201;28;20187;-85
2024/02/15 05:56:35;;;;;;;6.20;2.35;;;;;;;;;;5049690;28;20242;-85
2024/02/15 05:59:09;;;;;;;7.97;3.15;;;;;;;;;;5058811;28;20191;-85
2024/02/15 06:01:35;;;;;;;5.28;2.47;;;;;;;;;;5066926;28;20215;-86
2024/02/15 06:04:02;;;;;;;9.77;3.33;;;;;;;;;;5059186;28;20188;-85
2024/02/15 06:06:28;;;;;;;7.93;2.47;;;;;;;;;;5049045;28;20488;-86
2024/02/15 06:08:59;;;;;;;6.80;2.60;;;;;;;;;;5070155;28;20265;-86
2024/02/15 06:11:25;;;;;;;8.52;2.50;;;;;;;;;;5038261;28;20427;-86
2024/02/15 06:13:51;;;;;;;10.30;2.80;;;;;;;;;;5043634;28;20192;-86
2024/02/15 06:16:17;;;;;;;4.93;2.80;;;;;;;;;;5061463;28;20951;-86
2024/02/15 06:18:44;;;;;;;8.35;2.83;;;;;;;;;;5046009;28;20536;-86
2024/02/15 06:21:10;;;;;;;11.05;3.65;;;;;;;;;;5064402;28;20208;-86
2024/02/15 06:23:37;;;;;;;10.90;2.92;;;;;;;;;;5048847;28;20675;-87
2024/02/15 06:26:03;;;;;;;11.43;3.67;;;;;;;;;;5045046;28;20183;-86
2024/02/15 06:39:42;;;;;;;5.90;2.78;;;;;;;;;;5063013;28;20188;-87
2024/02/15 06:42:17;;;;;;;4.57;2.55;;;;;;;;;;5065591;28;20551;-86
2024/02/15 06:44:44;;;;;;;7.28;3.00;;;;;;;;;;5063058;28;20259;-86
2024/02/15 06:47:10;;;;;;;7.15;3.03;;;;;;;;;;5067836;28;20180;-86
2024/02/15 06:49:39;;;;;;;8.40;3.88;;;;;;;;;;5068275;28;20184;-86
2024/02/15 06:52:06;;;;;;;4.82;2.78;;;;;;;;;;5065653;28;20180;-86
2024/02/15 06:54:33;;;;;;;4.22;2.53;;;;;;;;;;5046190;28;20178;-86
2024/02/15 06:56:59;;;;;;;5.43;3.00;;;;;;;;;;5041374;28;20188;-86
2024/02/15 06:59:25;;;;;;;6.38;2.50;;;;;;;;;;5047718;28;20189;-86
2024/02/15 07:01:54;;;;;;;6.57;2.15;;;;;;;;;;5032498;28;20649;-86
2024/02/15 07:04:21;;;;;;;7.78;3.80;;;;;;;;;;5051934;28;20192;-86
2024/02/15 07:06:47;;;;;;;2.67;1.90;;;;;;;;;;5069603;28;20377;-86
2024/02/15 07:09:21;;;;;;;5.88;2.47;;;;;;;;;;5047417;28;20204;-86
2024/02/15 07:11:47;;;;;;;5.78;3.53;;;;;;;;;;5059257;28;20272;-86
2024/02/15 07:14:13;;;;;;;11.90;2.47;;;;;;;;;;5045066;28;20273;-87
2024/02/15 07:16:40;;;;;;;8.25;2.75;;;;;;;;;;5042387;28;20423;-86
2024/02/15 07:19:09;;;;;;;8.50;3.63;;;;;;;;;;5061108;28;20218;-86
2024/02/15 07:21:36;;;;;;;6.60;2.72;;;;;;;;;;5046355;28;20213;-87
2024/02/15 07:24:02;;;;;;;5.57;3.03;;;;;;;;;;5044358;28;20259;-86
2024/02/15 07:26:28;;;;;;;9.10;3.20;;;;;;;;;;5068959;28;20192;-86
2024/02/15 07:28:54;;;;;;;4.03;2.50;;;;;;;;;;5049096;28;20436;-87
2024/02/15 07:31:23;;;;;;;9.57;2.28;;;;;;;;;;5046253;28;20440;-87
2024/02/15 07:33:53;;;;;;;5.68;2.50;;;;;;;;;;5053546;28;20542;-87
2024/02/15 07:36:21;;;;;;;8.30;2.42;;;;;;;;;;5053506;28;20292;-94
2024/02/15 07:38:48;;;;;;;4.22;2.40;;;;;;;;;;5057857;28;20247;-93
2024/02/15 07:41:14;;;;;;;6.78;3.03;;;;;;;;;;5050682;28;20215;-83
2024/02/15 07:43:40;;;;;;;4.68;2.70;;;;;;;;;;5047086;28;20182;-82
2024/02/15 07:46:06;;;;;;;8.07;2.47;;;;;;;;;;5073605;28;20226;-83
2024/02/15 07:48:32;;;;;;;5.57;2.03;;;;;;;;;;5046362;28;20722;-83
2024/02/15 07:50:58;;;;;;;3.70;2.37;;;;;;;;;;5070267;28;20306;-82
2024/02/15 07:53:25;;;;;;;5.43;2.73;;;;;;;;;;5053214;28;20439;-82
2024/02/15 07:55:51;;;;;;;5.88;2.35;;;;;;;;;;5044657;28;20428;-82
2024/02/15 07:58:18;;;;;;;4.75;2.83;;;;;;;;;;5056276;28;20673;-81
2024/02/15 08:00:45;;;;;;;9.25;2.58;;;;;;;;;;5066222;28;20209;-81
2024/02/15 08:03:11;;;;;;;3.45;2.47;;;;;;;;;;5055664;28;20544;-82
2024/02/15 08:05:37;;;;;;;5.90;2.63;;;;;;;;;;5052103;28;20180;-82
2024/02/15 08:08:04;;;;;;;5.40;2.63;;;;;;;;;;5063810;28;20792;-82
2024/02/15 08:10:30;;;;;;;10.05;2.80;;;;;;;;;;5045472;28;20197;-82
2024/02/15 08:12:58;;;;;;;2.88;2.47;;;;;;;;;;5050839;28;20208;-82
2024/02/15 08:15:24;;;;;;;6.35;2.17;;;;;;;;;;5062915;28;20562;-82
2024/02/15 08:17:50;;;;;;;5.82;2.67;;;;;;;;;;5063868;28;20181;-81
2024/02/15 08:20:21;;;;;;;8.57;3.00;;;;;;;;;;5055009;28;20232;-81
2024/02/15 08:22:47;;;;;;;4.20;2.50;;;;;;;;;;5044112;28;20193;-82
2024/02/15 08:25:15;;;;;;;6.03;2.63;;;;;;;;;;5055663;28;20226;-82
2024/02/15 08:27:43;;;;;;;7.43;2.47;;;;;;;;;;5054445;28;20181;-83
2024/02/15 08:30:10;;;;;;;6.50;2.72;;;;;;;;;;5037829;28;20196;-82
2024/02/15 08:32:36;;;;;;;3.85;2.15;;;;;;;;;;5051615;28;20173;-82
2024/02/15 08:35:04;;;;;;;8.77;2.70;;;;;;;;;;5046362;28;20192;-83
2024/02/15 08:37:32;;;;;;;6.78;2.42;;;;;;;;;;5068756;28;20535;-83
2024/02/15 08:39:58;;;;;;;13.93;3.58;;;;;;;;;;5051209;28;20570;-83
2024/02/15 08:42:25;;;;;;;8.63;2.25;;;;;;;;;;5046773;28;20276;-82
2024/02/15 08:44:51;;;;;;;3.90;2.70;;;;;;;;;;5048558;28;20216;-82
2024/02/15 08:47:17;;;;;;;7.05;3.03;;;;;;;;;;5050213;28;20424;-83
2024/02/15 08:49:43;;;;;;;5.67;2.33;;;;;;;;;;5036019;28;20203;-83
2024/02/15 08:52:09;;;;;;;11.30;2.83;;;;;;;;;;5067692;28;20430;-82
2024/02/15 08:54:38;;;;;;;5.50;2.55;;;;;;;;;;5067951;28;20488;-83
2024/02/15 08:57:05;;;;;;;5.55;2.10;;;;;;;;;;5052724;28;20184;-83
2024/02/15 08:59:31;;;;;;;4.78;1.88;;;;;;;;;;5049686;28;20196;-83
2024/02/15 09:01:57;;;;;;;4.03;2.10;;;;;;;;;;5066262;28;20244;-83
2024/02/15 09:04:24;;;;;;;7.95;2.40;;;;;;;;;;5059395;28;20265;-82
2024/02/15 09:06:50;;;;;;;8.07;2.55;;;;;;;;;;5047453;28;20195;-82
2024/02/15 09:09:16;;;;;;;2.20;1.50;;;;;;;;;;5028662;28;20234;-83
2024/02/15 09:11:43;;;;;;;7.55;2.40;;;;;;;;;;5051924;28;20824;-83
2024/02/15 09:14:11;;;;;;;4.07;2.38;;;;;;;;;;5052210;28;20194;-83
2024/02/15 09:16:37;;;;;;;4.15;2.40;;;;;;;;;;5053152;28;20688;-84
2024/02/15 09:19:06;;;;;;;7.65;2.63;;;;;;;;;;5032332;28;20324;-83
2024/02/15 09:21:33;;;;;;;4.15;2.00;;;;;;;;;;5028109;28;20264;-83
2024/02/15 09:23:59;;;;;;;7.18;2.08;;;;;;;;;;5051065;28;20296;-83
2024/02/15 09:26:25;;;;;;;4.10;1.77;;;;;;;;;;5047519;28;20216;-83
2024/02/15 09:28:53;;;;;;;4.07;2.30;;;;;;;;;;5048101;28;20478;-84
2024/02/15 09:31:19;;;;;;;8.18;2.90;;;;;;;;;;5057886;28;20447;-83
2024/02/15 09:33:45;;;;;;;10.77;3.87;;;;;;;;;;5042176;28;20182;-82
2024/02/15 09:36:12;;;;;;;5.00;2.50;;;;;;;;;;5048673;28;20911;-83
2024/02/15 09:38:38;;;;;;;12.68;3.97;;;;;;;;;;5044329;28;20808;-83
2024/02/15 09:41:07;;;;;;;9.47;3.30;;;;;;;;;;5051553;28;20268;-84
2024/02/15 09:43:33;;;;;;;6.97;2.70;;;;;;;;;;5037240;28;20433;-83
2024/02/15 09:45:59;;;;;;;7.17;2.10;;;;;;;;;;5043977;28;20427;-83
2024/02/15 09:48:26;;;;;;;7.30;2.97;;;;;;;;;;5045193;28;20414;-83
2024/02/15 09:50:55;;;;;;;5.53;2.97;;;;;;;;;;5046351;28;20824;-84
2024/02/15 09:53:25;;;;;;;3.20;1.90;;;;;;;;;;5045430;28;20455;-83
2024/02/15 09:55:51;;;;;;;4.40;2.20;;;;;;;;;;5049987;28;20420;-84
2024/02/15 09:58:18;;;;;;;6.10;2.60;;;;;;;;;;5047339;28;20428;-84
2024/02/15 10:00:46;;;;;;;7.40;2.27;;;;;;;;;;5045278;28;20476;-83
2024/02/15 10:03:13;;;;;;;2.83;1.60;;;;;;;;;;5047554;28;20426;-84
2024/02/15 10:05:40;;;;;;;5.43;1.67;;;;;;;;;;5051128;28;20777;-84
2024/02/15 10:08:07;;;;;;;4.20;1.90;;;;;;;;;;5046854;28;20443;-84
2024/02/15 10:10:35;;;;;;;6.43;2.10;;;;;;;;;;5023595;28;20516;-84
2024/02/15 10:13:01;;;;;;;3.97;1.97;;;;;;;;;;5051840;28;20462;-84
2024/02/15 10:15:31;;;;;;;3.20;1.90;;;;;;;;;;5047831;28;20430;-83
2024/02/15 10:17:58;;;;;;;4.40;1.57;;;;;;;;;;5052329;28;20447;-83
2024/02/15 10:20:27;;;;;;;4.93;1.87;;;;;;;;;;5026035;28;21012;-83
2024/02/15 10:23:09;;;;;;;3.63;1.50;;;;;;;;;;5024579;28;20428;-83
2024/02/15 10:25:36;;;;;;;6.73;2.00;;;;;;;;;;5022157;28;20421;-82
2024/02/15 10:28:06;;;;;;;8.03;2.13;;;;;;;;;;5023758;28;20843;-83
2024/02/15 10:30:33;;;;;;;4.33;2.00;;;;;;;;;;5024576;28;20499;-83
2024/02/15 10:32:59;;;;;;;5.50;2.40;;;;;;;;;;5023419;28;20478;-83
2024/02/15 10:35:25;;;;;;;3.23;2.50;;;;;;;;;;5022388;28;20437;-83
2024/02/15 10:37:51;;;;;;;1.60;1.50;;;;;;;;;;5026306;28;20421;-82
2024/02/15 10:40:21;;;;;;;3.23;1.63;;;;;;;;;;5027247;28;20475;-82
2024/02/15 10:42:48;;;;;;;3.43;1.40;;;;;;;;;;5026053;28;20417;-82
2024/02/15 10:45:17;;;;;;;4.97;2.13;;;;;;;;;;5028197;28;20882;-82
2024/02/15 10:47:44;;;;;;;2.60;1.37;;;;;;;;;;5025335;28;20436;-82
2024/02/15 10:50:10;;;;;;;3.23;1.80;;;;;;;;;;5022219;28;20933;-82
2024/02/15 10:52:39;;;;;;;6.33;1.70;;;;;;;;;;5029650;28;20440;-82
2024/02/15 10:55:08;;;;;;;3.30;1.53;;;;;;;;;;5026871;28;20786;-82
2024/02/15 10:57:38;;;;;;;6.53;2.07;;;;;;;;;;5021741;28;20437;-82
2024/02/15 11:00:10;;;;;;;4.53;1.80;;;;;;;;;;5019649;28;20476;-82
2024/02/15 11:02:43;;;;;;;3.33;1.67;;;;;;;;;;5028107;28;20512;-82
2024/02/15 11:05:10;;;;;;;3.03;1.50;;;;;;;;;;5026018;28;20431;-82
2024/02/15 11:07:36;;;;;;;2.27;1.27;;;;;;;;;;5027039;28;20432;-82
2024/02/15 11:10:08;;;;;;;2.73;1.27;;;;;;;;;;5011275;28;20487;-82
2024/02/15 11:12:34;;;;;;;3.37;1.77;;;;;;;;;;5025076;28;20529;-82
2024/02/15 11:15:00;;;;;;;3.47;1.50;;;;;;;;;;5031067;28;20925;-81
2024/02/15 11:17:48;;;;;;;3.70;2.00;;;;;;;;;;5023344;28;20425;-81
2024/02/15 11:20:32;;;;;;;2.30;1.20;;;;;;;;;;5044276;28;20540;-82
2024/02/15 11:22:58;;;;;;;3.73;1.80;;;;;;;;;;5051050;28;20432;-81
2024/02/15 11:25:39;;;;;;;5.50;2.73;;;;;;;;;;5042016;28;20974;-82
2024/02/15 11:28:27;;;;;;;6.20;2.13;;;;;;;;;;5046342;28;20439;-82
2024/02/15 11:30:53;;;;;;;2.93;1.80;;;;;;;;;;5053632;28;20450;-81
2024/02/15 11:33:35;;;;;;;2.87;1.90;;;;;;;;;;5046614;28;20572;-81
2024/02/15 11:36:07;;;;;;;3.07;1.87;;;;;;;;;;5044971;28;20416;-82
2024/02/15 11:38:34;;;;;;;2.90;1.27;;;;;;;;;;5045880;28;20763;-82
2024/02/15 11:41:04;;;;;;;2.53;1.30;;;;;;;;;;5047675;28;20563;-82
2024/02/15 11:43:45;;;;;;;6.40;1.80;;;;;;;;;;5043916;28;20428;-82
2024/02/15 11:46:15;;;;;;;4.40;1.77;;;;;;;;;;5047126;28;20436;-82
2024/02/15 11:48:41;;;;;;;2.33;1.50;;;;;;;;;;5048573;28;20421;-81
2024/02/15 11:51:07;;;;;;;4.30;1.40;;;;;;;;;;5042211;28;20520;-82
2024/02/15 11:53:33;;;;;;;4.27;1.40;;;;;;;;;;5046989;28;20435;-82
2024/02/15 11:56:04;;;;;;;2.03;1.30;;;;;;;;;;5046784;28;20464;-82
2024/02/15 11:58:41;;;;;;;2.90;1.20;;;;;;;;;;5046601;28;20457;-82
2024/02/15 12:20:31;;;;;;;2.20;1.07;;;;;;;;;;5066153;28;20535;-82
2024/02/15 12:23:00;;;;;;;1.53;1.00;;;;;;;;;;5072809;28;20423;-82
2024/02/15 12:25:26;;;;;;;2.50;1.13;;;;;;;;;;5065881;28;20436;-82
2024/02/15 12:27:53;;;;;;;5.43;1.50;;;;;;;;;;5066707;28;20422;-82
2024/02/15 12:30:25;;;;;;;3.07;1.10;;;;;;;;;;5061508;28;20435;-82
2024/02/15 12:32:51;;;;;;;2.27;1.50;;;;;;;;;;5047607;28;20420;-82
2024/02/15 12:35:21;;;;;;;4.27;1.50;;;;;;;;;;5062131;28;20514;-82
2024/02/15 12:37:47;;;;;;;1.60;1.10;;;;;;;;;;5066878;28;20424;-81
2024/02/15 12:40:22;;;;;;;5.20;1.33;;;;;;;;;;5055263;28;20495;-82
2024/02/15 12:42:48;;;;;;;2.70;1.00;;;;;;;;;;5068707;28;20415;-82
2024/02/15 12:45:20;;;;;;;2.90;1.30;;;;;;;;;;5064934;28;20820;-82
2024/02/15 12:47:50;;;;;;;1.77;1.00;;;;;;;;;;5067726;28;20415;-82
2024/02/15 12:50:17;;;;;;;2.10;1.10;;;;;;;;;;5060032;28;20422;-82
2024/02/15 12:52:43;;;;;;;4.43;1.33;;;;;;;;;;5065547;28;20399;-82
2024/02/15 12:55:16;;;;;;;1.77;1.10;;;;;;;;;;5068601;28;20450;-82
2024/02/15 12:57:45;;;;;;;2.40;1.10;;;;;;;;;;5043696;28;20431;-83
2024/02/15 13:00:13;;;;;;;2.93;0.90;;;;;;;;;;5052127;28;20445;-82
2024/02/15 13:02:39;;;;;;;2.27;1.20;;;;;;;;;;5049625;28;20418;-83
2024/02/15 13:05:08;;;;;;;2.37;1.20;;;;;;;;;;5047415;28;21001;-82
2024/02/15 13:07:35;;;;;;;2.47;1.07;;;;;;;;;;5059038;28;20431;-83
2024/02/15 13:10:01;;;;;;;1.57;1.27;;;;;;;;;;5067859;28;20427;-82
2024/02/15 13:12:28;;;;;;;2.10;0.90;;;;;;;;;;5051553;28;20436;-82
2024/02/15 13:14:54;;;;;;;1.97;1.30;;;;;;;;;;5061924;28;20415;-82
2024/02/15 13:17:21;;;;;;;4.47;1.20;;;;;;;;;;5048652;28;20419;-82
2024/02/15 13:19:48;;;;;;;3.50;1.30;;;;;;;;;;5067665;28;20456;-82
2024/02/15 13:22:15;;;;;;;2.40;1.10;;;;;;;;;;5065666;28;20847;-82
2024/02/15 13:24:41;;;;;;;7.60;1.13;;;;;;;;;;5066822;28;20469;-83
2024/02/15 13:27:10;;;;;;;4.13;0.90;;;;;;;;;;5043911;28;20464;-82
2024/02/15 13:29:36;;;;;;;1.50;1.00;;;;;;;;;;5045823;28;20955;-82
2024/02/15 13:32:01;;;;;;;2.87;1.07;;;;;;;;;;5070706;28;20434;-81
2024/02/15 13:34:27;;;;;;;4.00;1.50;;;;;;;;;;5066453;28;20816;-83
2024/02/15 13:36:54;;;;;;;3.00;1.10;;;;;;;;;;5037021;28;20549;-82
2024/02/15 13:39:21;;;;;;;2.90;1.17;;;;;;;;;;5044466;28;20932;-82
2024/02/15 13:41:47;;;;;;;2.73;1.17;;;;;;;;;;5068570;28;20948;-81
2024/02/15 13:44:14;;;;;;;4.73;1.40;;;;;;;;;;5047707;28;20845;-82
2024/02/15 13:46:42;;;;;;;3.43;1.07;;;;;;;;;;5057498;28;20424;-82
2024/02/15 13:49:08;;;;;;;2.27;0.80;;;;;;;;;;5062285;28;20458;-82
2024/02/15 13:51:34;;;;;;;1.77;0.90;;;;;;;;;;5059211;28;20431;-82
2024/02/15 13:54:00;;;;;;;1.50;0.93;;;;;;;;;;5048098;28;20430;-83
2024/02/15 13:56:26;;;;;;;2.70;0.90;;;;;;;;;;5057842;28;20900;-82
2024/02/15 13:58:52;;;;;;;3.10;1.03;;;;;;;;;;5051324;28;20431;-82
2024/02/15 14:01:18;;;;;;;3.10;1.00;;;;;;;;;;5063816;28;20946;-80
2024/02/15 14:03:45;;;;;;;2.43;1.00;;;;;;;;;;5060252;28;20451;-81
2024/02/15 14:06:11;;;;;;;2.10;1.43;;;;;;;;;;5048703;28;20484;-81
2024/02/15 14:08:37;;;;;;;5.87;1.43;;;;;;;;;;5048763;28;20926;-80
2024/02/15 14:11:05;;;;;;;2.73;1.40;;;;;;;;;;5067665;28;20446;-84
2024/02/15 14:13:31;;;;;;;2.80;1.03;;;;;;;;;;5064531;28;20426;-80
2024/02/15 14:15:57;;;;;;;1.90;1.00;;;;;;;;;;5065953;28;20804;-81
2024/02/15 14:18:23;;;;;;;1.57;1.30;;;;;;;;;;5045860;28;20800;-80
2024/02/15 14:20:50;;;;;;;1.33;1.00;;;;;;;;;;5062377;28;20560;-80
2024/02/15 14:23:17;;;;;;;1.47;0.87;;;;;;;;;;5067504;28;20435;-83
2024/02/15 14:25:44;;;;;;;1.90;0.87;;;;;;;;;;5060731;28;20415;-80
2024/02/15 14:28:10;;;;;;;2.17;1.13;;;;;;;;;;5063129;28;21003;-81
2024/02/15 14:33:22;;;;;;;2.83;1.03;;;;;;;;;;5063253;28;20402;-82
2024/02/15 14:35:48;;;;;;;1.17;0.90;;;;;;;;;;5062551;28;20423;-82
2024/02/15 14:38:15;;;;;;;2.50;1.07;;;;;;;;;;5064772;28;20402;-83
2024/02/15 14:40:52;;;;;;;2.43;1.00;;;;;;;;;;5052538;28;20479;-84
2024/02/15 14:43:20;;;;;;;3.30;1.13;;;;;;;;;;5057779;28;20426;-82
2024/02/15 14:45:47;;;;;;;3.47;1.20;;;;;;;;;;5057119;28;20444;-82
2024/02/15 14:48:13;;;;;;;1.57;1.03;;;;;;;;;;5051017;28;20411;-82
2024/02/15 14:50:43;;;;;;;2.70;1.30;;;;;;;;;;5043922;28;20473;-82
2024/02/15 14:53:09;;;;;;;1.97;1.23;;;;;;;;;;5073571;28;20416;-82
2024/02/15 14:55:38;;;;;;;3.30;1.23;;;;;;;;;;5075376;28;20435;-82
2024/02/15 14:58:05;;;;;;;2.03;0.93;;;;;;;;;;5066914;28;20955;-85
2024/02/15 15:00:31;;;;;;;1.60;0.90;;;;;;;;;;5031239;28;20480;-83
2024/02/15 15:02:58;;;;;;;2.33;1.30;;;;;;;;;;5066851;28;20435;-82
2024/02/15 15:13:40;;;;;;;2.80;1.03;;;;;;;;;;5073001;28;20426;-80
2024/02/15 15:16:07;;;;;;;2.27;1.20;;;;;;;;;;5066849;28;20528;-84
2024/02/15 15:18:33;;;;;;;2.90;1.27;;;;;;;;;;5046726;28;20855;-82
2024/02/15 15:21:00;;;;;;;3.87;1.73;;;;;;;;;;5069169;28;20497;-80
2024/02/15 15:23:32;;;;;;;4.40;1.03;;;;;;;;;;5063214;28;20404;-80
2024/02/15 15:25:58;;;;;;;4.07;1.13;;;;;;;;;;5049278;28;20792;-82